sensor_id;sensor_type;location;lat;lon;timestamp;pressure;altitude;pressure_sealevel;temperature;humidity
77161;BME280;66135;0.000;0.000;2024-03-29T00:01:28;98993.34;;;18.87;59.37
77161;BME280;66135;0.000;0.000;2024-03-29T00:03:53;98984.59;;;18.85;59.15
77161;BME280;66135;0.000;0.000;2024-03-29T00:06:19;98987.31;;;18.85;59.21
77161;BME280;66135;0.000;0.000;2024-03-29T00:08:44;98991.66;;;18.86;59.24
77161;BME280;66135;0.000;0.000;2024-03-29T00:11:10;98986.25;;;18.86;59.09
77161;BME280;66135;0.000;0.000;2024-03-29T00:13:35;98993.78;;;18.84;59.09
77161;BME280;66135;0.000;0.000;2024-03-29T00:16:00;98998.59;;;18.82;59.04
77161;BME280;66135;0.000;0.000;2024-03-29T00:18:26;98995.91;;;18.82;59.31
77161;BME280;66135;0.000;0.000;2024-03-29T00:20:51;99004.25;;;18.81;59.22
77161;BME280;66135;0.000;0.000;2024-03-29T00:23:17;99006.13;;;18.80;59.16
77161;BME280;66135;0.000;0.000;2024-03-29T00:25:42;99015.91;;;18.81;59.29
77161;BME280;66135;0.000;0.000;2024-03-29T00:28:07;99017.22;;;18.79;59.43
77161;BME280;66135;0.000;0.000;2024-03-29T00:30:33;99030.78;;;18.79;59.10
77161;BME280;66135;0.000;0.000;2024-03-29T00:32:58;99029.09;;;18.78;59.06
77161;BME280;66135;0.000;0.000;2024-03-29T00:35:23;99028.28;;;18.77;59.21
77161;BME280;66135;0.000;0.000;2024-03-29T00:37:49;99024.97;;;18.75;59.33
77161;BME280;66135;0.000;0.000;2024-03-29T00:40:15;99027.91;;;18.74;59.19
77161;BME280;66135;0.000;0.000;2024-03-29T00:42:40;99036.03;;;18.74;59.03
77161;BME280;66135;0.000;0.000;2024-03-29T00:45:06;99035.44;;;18.72;59.27
77161;BME280;66135;0.000;0.000;2024-03-29T00:47:31;99037.31;;;18.71;59.12
77161;BME280;66135;0.000;0.000;2024-03-29T00:49:57;99040.47;;;18.68;59.27
77161;BME280;66135;0.000;0.000;2024-03-29T00:52:23;99036.09;;;18.67;59.11
77161;BME280;66135;0.000;0.000;2024-03-29T00:54:48;99046.75;;;18.69;59.02
77161;BME280;66135;0.000;0.000;2024-03-29T00:57:13;99031.72;;;18.66;59.12
77161;BME280;66135;0.000;0.000;2024-03-29T00:59:40;99035.69;;;18.64;59.08
77161;BME280;66135;0.000;0.000;2024-03-29T01:02:08;99043.63;;;18.65;58.91
77161;BME280;66135;0.000;0.000;2024-03-29T01:04:34;99049.25;;;18.64;59.16
77161;BME280;66135;0.000;0.000;2024-03-29T01:06:59;99042.41;;;18.61;59.12
77161;BME280;66135;0.000;0.000;2024-03-29T01:09:24;99045.13;;;18.61;59.05
77161;BME280;66135;0.000;0.000;2024-03-29T01:11:50;99035.53;;;18.59;59.14
77161;BME280;66135;0.000;0.000;2024-03-29T01:14:16;99049.31;;;18.57;59.24
77161;BME280;66135;0.000;0.000;2024-03-29T01:16:41;99038.25;;;18.59;59.21
77161;BME280;66135;0.000;0.000;2024-03-29T01:19:06;99031.16;;;18.58;59.20
77161;BME280;66135;0.000;0.000;2024-03-29T01:21:35;99028.69;;;18.56;59.19
77161;BME280;66135;0.000;0.000;2024-03-29T01:24:00;99030.09;;;18.59;58.92
77161;BME280;66135;0.000;0.000;2024-03-29T01:26:26;99018.44;;;18.58;58.99
77161;BME280;66135;0.000;0.000;2024-03-29T01:28:52;99008.03;;;18.55;59.00
77161;BME280;66135;0.000;0.000;2024-03-29T01:31:17;99005.09;;;18.57;58.89
77161;BME280;66135;0.000;0.000;2024-03-29T01:33:42;99004.94;;;18.52;58.91
77161;BME280;66135;0.000;0.000;2024-03-29T01:36:08;98998.25;;;18.54;58.86
77161;BME280;66135;0.000;0.000;2024-03-29T01:38:34;98999.50;;;18.52;59.20
77161;BME280;66135;0.000;0.000;2024-03-29T01:40:59;98994.31;;;18.50;58.97
77161;BME280;66135;0.000;0.000;2024-03-29T01:43:25;98979.72;;;18.51;59.06
77161;BME280;66135;0.000;0.000;2024-03-29T01:45:54;98973.00;;;18.54;58.94
77161;BME280;66135;0.000;0.000;2024-03-29T01:48:21;98972.16;;;18.53;58.79
77161;BME280;66135;0.000;0.000;2024-03-29T01:50:48;98981.13;;;18.54;58.93
77161;BME280;66135;0.000;0.000;2024-03-29T01:53:14;98981.81;;;18.49;58.97
77161;BME280;66135;0.000;0.000;2024-03-29T01:55:41;98985.94;;;18.52;59.07
77161;BME280;66135;0.000;0.000;2024-03-29T01:58:08;98984.53;;;18.49;58.85
77161;BME280;66135;0.000;0.000;2024-03-29T02:00:36;98977.00;;;18.51;58.67
77161;BME280;66135;0.000;0.000;2024-03-29T02:03:05;98982.63;;;18.50;58.97
77161;BME280;66135;0.000;0.000;2024-03-29T02:05:35;98972.63;;;18.50;58.95
77161;BME280;66135;0.000;0.000;2024-03-29T02:08:03;98972.38;;;18.52;58.73
77161;BME280;66135;0.000;0.000;2024-03-29T02:10:29;98989.72;;;18.51;58.84
77161;BME280;66135;0.000;0.000;2024-03-29T02:12:54;98991.59;;;18.50;58.79
77161;BME280;66135;0.000;0.000;2024-03-29T02:15:20;98983.47;;;18.50;58.74
77161;BME280;66135;0.000;0.000;2024-03-29T02:17:45;98999.13;;;18.48;58.62
77161;BME280;66135;0.000;0.000;2024-03-29T02:20:10;98998.88;;;18.50;58.66
77161;BME280;66135;0.000;0.000;2024-03-29T02:22:40;99011.88;;;18.48;58.79
77161;BME280;66135;0.000;0.000;2024-03-29T02:25:10;99009.16;;;18.48;58.77
77161;BME280;66135;0.000;0.000;2024-03-29T02:27:36;99001.66;;;18.43;58.83
77161;BME280;66135;0.000;0.000;2024-03-29T02:30:02;99009.81;;;18.43;58.87
77161;BME280;66135;0.000;0.000;2024-03-29T02:32:28;99006.06;;;18.44;59.09
77161;BME280;66135;0.000;0.000;2024-03-29T02:34:53;98988.94;;;18.44;58.89
77161;BME280;66135;0.000;0.000;2024-03-29T02:37:18;99005.44;;;18.42;58.90
77161;BME280;66135;0.000;0.000;2024-03-29T02:39:44;99009.81;;;18.43;59.01
77161;BME280;66135;0.000;0.000;2024-03-29T02:42:10;99017.72;;;18.45;59.28
77161;BME280;66135;0.000;0.000;2024-03-29T02:44:35;99015.22;;;18.43;58.69
77161;BME280;66135;0.000;0.000;2024-03-29T02:47:13;99017.50;;;18.40;58.73
77161;BME280;66135;0.000;0.000;2024-03-29T02:49:38;99022.94;;;18.40;58.86
77161;BME280;66135;0.000;0.000;2024-03-29T02:52:04;99019.59;;;18.38;58.83
77161;BME280;66135;0.000;0.000;2024-03-29T02:54:29;99018.56;;;18.39;58.84
77161;BME280;66135;0.000;0.000;2024-03-29T02:56:54;99025.03;;;18.38;58.67
77161;BME280;66135;0.000;0.000;2024-03-29T02:59:20;99018.41;;;18.34;58.94
77161;BME280;66135;0.000;0.000;2024-03-29T03:01:45;99037.16;;;18.35;59.03
77161;BME280;66135;0.000;0.000;2024-03-29T03:04:10;99040.09;;;18.34;58.92
77161;BME280;66135;0.000;0.000;2024-03-29T03:06:36;99023.22;;;18.32;58.87
77161;BME280;66135;0.000;0.000;2024-03-29T03:09:01;99026.16;;;18.30;59.02
77161;BME280;66135;0.000;0.000;2024-03-29T03:11:45;99036.16;;;18.30;58.85
77161;BME280;66135;0.000;0.000;2024-03-29T03:14:10;99030.97;;;18.28;59.21
77161;BME280;66135;0.000;0.000;2024-03-29T03:16:36;99035.94;;;18.31;59.23
77161;BME280;66135;0.000;0.000;2024-03-29T03:19:01;99047.38;;;18.33;59.11
77161;BME280;66135;0.000;0.000;2024-03-29T03:21:26;99047.84;;;18.30;58.95
77161;BME280;66135;0.000;0.000;2024-03-29T03:23:52;99045.34;;;18.29;59.14
77161;BME280;66135;0.000;0.000;2024-03-29T03:26:17;99049.09;;;18.28;59.06
77161;BME280;66135;0.000;0.000;2024-03-29T03:28:42;99038.88;;;18.30;59.05
77161;BME280;66135;0.000;0.000;2024-03-29T03:31:08;99031.19;;;18.27;58.89
77161;BME280;66135;0.000;0.000;2024-03-29T03:33:34;99028.03;;;18.30;58.88
77161;BME280;66135;0.000;0.000;2024-03-29T03:35:59;99015.53;;;18.29;59.15
77161;BME280;66135;0.000;0.000;2024-03-29T03:38:24;99026.56;;;18.27;59.09
77161;BME280;66135;0.000;0.000;2024-03-29T03:40:50;99030.34;;;18.26;59.16
77161;BME280;66135;0.000;0.000;2024-03-29T03:43:15;99024.91;;;18.26;59.09
77161;BME280;66135;0.000;0.000;2024-03-29T03:45:41;99018.66;;;18.26;59.12
77161;BME280;66135;0.000;0.000;2024-03-29T03:48:10;99020.75;;;18.24;59.03
77161;BME280;66135;0.000;0.000;2024-03-29T03:50:37;99025.38;;;18.23;58.97
77161;BME280;66135;0.000;0.000;2024-03-29T03:53:02;99030.16;;;18.21;59.10
77161;BME280;66135;0.000;0.000;2024-03-29T03:55:27;99035.38;;;18.23;59.21
77161;BME280;66135;0.000;0.000;2024-03-29T03:57:53;99051.84;;;18.21;58.99
77161;BME280;66135;0.000;0.000;2024-03-29T04:00:20;99041.84;;;18.22;59.04
77161;BME280;66135;0.000;0.000;2024-03-29T04:02:49;99049.13;;;18.21;59.11
77161;BME280;66135;0.000;0.000;2024-03-29T04:05:16;99060.22;;;18.20;59.30
77161;BME280;66135;0.000;0.000;2024-03-29T04:07:42;99074.78;;;18.19;59.04
77161;BME280;66135;0.000;0.000;2024-03-29T04:10:07;99075.00;;;18.17;59.27
77161;BME280;66135;0.000;0.000;2024-03-29T04:12:33;99068.75;;;18.17;59.25
77161;BME280;66135;0.000;0.000;2024-03-29T04:14:58;99085.00;;;18.17;59.37
77161;BME280;66135;0.000;0.000;2024-03-29T04:17:23;99089.63;;;18.16;59.25
77161;BME280;66135;0.000;0.000;2024-03-29T04:19:49;99082.53;;;18.15;59.04
77161;BME280;66135;0.000;0.000;2024-03-29T04:22:14;99080.88;;;18.14;59.16
77161;BME280;66135;0.000;0.000;2024-03-29T04:24:39;99074.63;;;18.14;58.74
77161;BME280;66135;0.000;0.000;2024-03-29T04:27:05;99071.28;;;18.12;59.13
77161;BME280;66135;0.000;0.000;2024-03-29T04:29:30;99061.28;;;18.12;59.33
77161;BME280;66135;0.000;0.000;2024-03-29T04:31:58;99061.06;;;18.14;59.11
77161;BME280;66135;0.000;0.000;2024-03-29T04:34:23;99062.13;;;18.13;59.10
77161;BME280;66135;0.000;0.000;2024-03-29T04:36:48;99074.84;;;18.12;59.14
77161;BME280;66135;0.000;0.000;2024-03-29T04:39:14;99072.97;;;18.13;58.99
77161;BME280;66135;0.000;0.000;2024-03-29T04:41:39;99051.50;;;18.11;59.03
77161;BME280;66135;0.000;0.000;2024-03-29T04:44:04;99061.13;;;18.07;59.24
77161;BME280;66135;0.000;0.000;2024-03-29T04:46:30;99057.97;;;18.10;59.03
77161;BME280;66135;0.000;0.000;2024-03-29T04:48:56;99057.97;;;18.10;59.03
77161;BME280;66135;0.000;0.000;2024-03-29T04:51:22;99054.63;;;18.08;59.22
77161;BME280;66135;0.000;0.000;2024-03-29T04:53:47;99063.59;;;18.09;59.10
77161;BME280;66135;0.000;0.000;2024-03-29T04:56:13;99060.06;;;18.08;58.97
77161;BME280;66135;0.000;0.000;2024-03-29T04:58:38;99062.16;;;18.06;59.21
77161;BME280;66135;0.000;0.000;2024-03-29T05:01:03;99052.97;;;18.07;59.14
77161;BME280;66135;0.000;0.000;2024-03-29T05:03:29;99045.69;;;18.08;58.95
77161;BME280;66135;0.000;0.000;2024-03-29T05:05:54;99046.09;;;18.05;59.01
77161;BME280;66135;0.000;0.000;2024-03-29T05:08:20;99047.16;;;18.04;59.08
77161;BME280;66135;0.000;0.000;2024-03-29T05:10:48;99048.00;;;18.04;59.19
77161;BME280;66135;0.000;0.000;2024-03-29T05:13:13;99047.59;;;18.01;59.28
77161;BME280;66135;0.000;0.000;2024-03-29T05:15:39;99044.91;;;18.01;59.22
77161;BME280;66135;0.000;0.000;2024-03-29T05:18:04;99043.00;;;18.01;59.44
77161;BME280;66135;0.000;0.000;2024-03-29T05:20:30;99043.00;;;18.01;59.36
77161;BME280;66135;0.000;0.000;2024-03-29T05:22:56;99045.53;;;18.03;59.20
77161;BME280;66135;0.000;0.000;2024-03-29T05:25:21;99028.41;;;18.02;59.42
77161;BME280;66135;0.000;0.000;2024-03-29T05:27:47;99045.72;;;18.01;59.29
77161;BME280;66135;0.000;0.000;2024-03-29T05:30:13;99044.28;;;17.98;59.44
77161;BME280;66135;0.000;0.000;2024-03-29T05:32:39;99029.28;;;17.96;59.36
77161;BME280;66135;0.000;0.000;2024-03-29T05:35:05;99019.28;;;17.96;59.72
77161;BME280;66135;0.000;0.000;2024-03-29T05:37:30;99027.19;;;17.98;59.43
77161;BME280;66135;0.000;0.000;2024-03-29T05:39:55;99030.75;;;17.98;59.37
77161;BME280;66135;0.000;0.000;2024-03-29T05:42:29;99022.84;;;17.97;59.16
77161;BME280;66135;0.000;0.000;2024-03-29T05:44:54;99033.66;;;17.97;59.06
77161;BME280;66135;0.000;0.000;2024-03-29T05:47:20;99044.72;;;17.95;59.26
77161;BME280;66135;0.000;0.000;2024-03-29T05:49:46;99042.66;;;17.91;59.38
77161;BME280;66135;0.000;0.000;2024-03-29T05:52:11;99053.25;;;17.92;59.23
77161;BME280;66135;0.000;0.000;2024-03-29T05:54:44;99059.31;;;17.94;59.13
77161;BME280;66135;0.000;0.000;2024-03-29T05:57:10;99071.59;;;17.97;58.96
77161;BME280;66135;0.000;0.000;2024-03-29T05:59:36;99059.25;;;18.01;58.84
77161;BME280;66135;0.000;0.000;2024-03-29T06:02:01;99061.13;;;18.07;58.89
77161;BME280;66135;0.000;0.000;2024-03-29T06:04:27;99064.22;;;18.11;58.88
77161;BME280;66135;0.000;0.000;2024-03-29T06:06:59;99079.00;;;18.15;58.72
77161;BME280;66135;0.000;0.000;2024-03-29T06:09:25;99092.09;;;18.18;58.50
77161;BME280;66135;0.000;0.000;2024-03-29T06:11:51;99091.66;;;18.21;58.01
77161;BME280;66135;0.000;0.000;2024-03-29T06:14:17;99092.50;;;18.21;58.25
77161;BME280;66135;0.000;0.000;2024-03-29T06:17:00;99077.91;;;18.22;58.12
77161;BME280;66135;0.000;0.000;2024-03-29T06:19:44;99080.38;;;18.24;58.39
77161;BME280;66135;0.000;0.000;2024-03-29T06:22:10;99077.47;;;18.25;57.98
77161;BME280;66135;0.000;0.000;2024-03-29T06:24:35;99057.44;;;18.26;57.93
77161;BME280;66135;0.000;0.000;2024-03-29T06:27:01;99059.09;;;18.27;57.87
77161;BME280;66135;0.000;0.000;2024-03-29T06:29:26;99068.91;;;18.28;57.98
77161;BME280;66135;0.000;0.000;2024-03-29T06:31:52;99072.22;;;18.30;58.07
77161;BME280;66135;0.000;0.000;2024-03-29T06:34:17;99077.44;;;18.32;57.88
77161;BME280;66135;0.000;0.000;2024-03-29T06:36:42;99085.13;;;18.35;58.33
77161;BME280;66135;0.000;0.000;2024-03-29T06:39:08;99084.91;;;18.36;58.13
77161;BME280;66135;0.000;0.000;2024-03-29T06:41:33;99076.34;;;18.39;58.39
77161;BME280;66135;0.000;0.000;2024-03-29T06:43:59;99075.31;;;18.40;58.38
77161;BME280;66135;0.000;0.000;2024-03-29T06:46:24;99066.31;;;18.40;58.57
77161;BME280;66135;0.000;0.000;2024-03-29T06:48:49;99057.38;;;18.39;58.66
77161;BME280;66135;0.000;0.000;2024-03-29T06:51:15;99062.59;;;18.41;58.34
77161;BME280;66135;0.000;0.000;2024-03-29T06:53:40;99058.00;;;18.41;58.43
77161;BME280;66135;0.000;0.000;2024-03-29T06:56:05;99061.53;;;18.42;58.53
77161;BME280;66135;0.000;0.000;2024-03-29T06:58:31;99065.09;;;18.42;58.27
77161;BME280;66135;0.000;0.000;2024-03-29T07:00:56;99065.94;;;18.43;58.05
77161;BME280;66135;0.000;0.000;2024-03-29T07:03:24;99067.34;;;18.45;58.33
77161;BME280;66135;0.000;0.000;2024-03-29T07:05:49;99063.56;;;18.46;58.22
77161;BME280;66135;0.000;0.000;2024-03-29T07:08:15;99058.16;;;18.46;58.66
77161;BME280;66135;0.000;0.000;2024-03-29T07:10:40;99064.63;;;18.45;58.51
77161;BME280;66135;0.000;0.000;2024-03-29T07:13:07;99063.38;;;18.48;58.09
77161;BME280;66135;0.000;0.000;2024-03-29T07:15:32;99077.53;;;18.50;58.36
77161;BME280;66135;0.000;0.000;2024-03-29T07:17:58;99083.78;;;18.50;58.21
77161;BME280;66135;0.000;0.000;2024-03-29T07:20:25;99082.13;;;18.49;58.18
77161;BME280;66135;0.000;0.000;2024-03-29T07:22:51;99077.34;;;18.51;58.04
77161;BME280;66135;0.000;0.000;2024-03-29T07:25:16;99085.47;;;18.51;58.13
77161;BME280;66135;0.000;0.000;2024-03-29T07:27:41;99095.47;;;18.51;58.12
77161;BME280;66135;0.000;0.000;2024-03-29T07:30:07;99102.31;;;18.53;58.16
77161;BME280;66135;0.000;0.000;2024-03-29T07:32:33;99101.28;;;18.54;58.30
77161;BME280;66135;0.000;0.000;2024-03-29T07:34:59;99107.56;;;18.55;58.20
77161;BME280;66135;0.000;0.000;2024-03-29T07:37:25;99081.47;;;18.54;58.16
77161;BME280;66135;0.000;0.000;2024-03-29T07:39:50;99093.16;;;18.54;58.25
77161;BME280;66135;0.000;0.000;2024-03-29T07:42:16;99103.16;;;18.54;58.28
77161;BME280;66135;0.000;0.000;2024-03-29T07:44:41;99095.88;;;18.54;58.13
77161;BME280;66135;0.000;0.000;2024-03-29T07:47:07;99108.59;;;18.54;58.30
77161;BME280;66135;0.000;0.000;2024-03-29T07:49:32;99104.00;;;18.54;58.62
77161;BME280;66135;0.000;0.000;2024-03-29T07:51:57;99098.56;;;18.54;58.24
77161;BME280;66135;0.000;0.000;2024-03-29T07:54:23;99086.88;;;18.54;58.42
77161;BME280;66135;0.000;0.000;2024-03-29T07:56:48;99078.53;;;18.55;58.32
77161;BME280;66135;0.000;0.000;2024-03-29T07:59:13;99086.06;;;18.53;58.64
77161;BME280;66135;0.000;0.000;2024-03-29T08:01:39;99084.19;;;18.54;58.68
77161;BME280;66135;0.000;0.000;2024-03-29T08:04:07;99078.75;;;18.54;58.46
77161;BME280;66135;0.000;0.000;2024-03-29T08:06:32;99086.06;;;18.53;58.84
77161;BME280;66135;0.000;0.000;2024-03-29T08:08:57;99076.03;;;18.54;58.74
77161;BME280;66135;0.000;0.000;2024-03-29T08:11:23;99080.63;;;18.53;58.60
77161;BME280;66135;0.000;0.000;2024-03-29T08:13:48;99078.75;;;18.54;58.44
77161;BME280;66135;0.000;0.000;2024-03-29T08:16:14;99091.28;;;18.55;58.88
77161;BME280;66135;0.000;0.000;2024-03-29T08:18:41;99077.72;;;18.55;58.78
77161;BME280;66135;0.000;0.000;2024-03-29T08:21:07;99072.06;;;18.56;58.45
77161;BME280;66135;0.000;0.000;2024-03-29T08:23:37;99083.72;;;18.57;58.66
77161;BME280;66135;0.000;0.000;2024-03-29T08:26:04;99091.06;;;18.56;58.71
77161;BME280;66135;0.000;0.000;2024-03-29T08:28:29;99104.41;;;18.58;58.74
77161;BME280;66135;0.000;0.000;2024-03-29T08:31:01;99099.19;;;18.56;58.68
77161;BME280;66135;0.000;0.000;2024-03-29T08:33:27;99105.44;;;18.57;58.97
77161;BME280;66135;0.000;0.000;2024-03-29T08:35:53;99101.91;;;18.56;59.03
77161;BME280;66135;0.000;0.000;2024-03-29T08:38:18;99099.41;;;18.55;58.71
77161;BME280;66135;0.000;0.000;2024-03-29T08:40:44;99096.72;;;18.55;58.81
77161;BME280;66135;0.000;0.000;2024-03-29T08:43:13;99099.41;;;18.55;58.53
77161;BME280;66135;0.000;0.000;2024-03-29T08:45:38;99088.97;;;18.58;58.57
77161;BME280;66135;0.000;0.000;2024-03-29T08:48:09;99108.75;;;18.59;58.94
77161;BME280;66135;0.000;0.000;2024-03-29T08:50:35;99119.59;;;18.59;58.89
77161;BME280;66135;0.000;0.000;2024-03-29T08:53:02;99127.31;;;18.62;59.17
77161;BME280;66135;0.000;0.000;2024-03-29T08:55:31;99124.38;;;18.63;59.03
77161;BME280;66135;0.000;0.000;2024-03-29T08:57:58;99121.69;;;18.63;59.18
77161;BME280;66135;0.000;0.000;2024-03-29T09:00:25;99121.44;;;18.65;59.21
77161;BME280;66135;0.000;0.000;2024-03-29T09:02:50;99123.09;;;18.66;59.14
77161;BME280;66135;0.000;0.000;2024-03-29T09:05:15;99122.28;;;18.65;59.22
77161;BME280;66135;0.000;0.000;2024-03-29T09:07:41;99118.50;;;18.66;59.38
77161;BME280;66135;0.000;0.000;2024-03-29T09:10:07;99127.50;;;18.67;59.37
77161;BME280;66135;0.000;0.000;2024-03-29T09:12:32;99128.53;;;18.66;59.43
77161;BME280;66135;0.000;0.000;2024-03-29T09:14:58;99125.59;;;18.67;59.33
77161;BME280;66135;0.000;0.000;2024-03-29T09:17:23;99127.25;;;18.68;59.37
77161;BME280;66135;0.000;0.000;2024-03-29T09:19:52;99132.69;;;18.68;59.58
77161;BME280;66135;0.000;0.000;2024-03-29T09:22:18;99130.59;;;18.70;59.54
77161;BME280;66135;0.000;0.000;2024-03-29T09:24:44;99139.53;;;18.71;59.38
77161;BME280;66135;0.000;0.000;2024-03-29T09:27:09;99128.69;;;18.71;59.61
77161;BME280;66135;0.000;0.000;2024-03-29T09:29:34;99134.72;;;18.73;59.49
77161;BME280;66135;0.000;0.000;2024-03-29T09:32:00;99141.00;;;18.73;59.55
77161;BME280;66135;0.000;0.000;2024-03-29T09:34:28;99151.84;;;18.73;59.47
77161;BME280;66135;0.000;0.000;2024-03-29T09:36:54;99168.75;;;18.75;59.64
77161;BME280;66135;0.000;0.000;2024-03-29T09:39:19;99165.81;;;18.77;59.66
77161;BME280;66135;0.000;0.000;2024-03-29T09:41:45;99172.06;;;18.77;59.82
77161;BME280;66135;0.000;0.000;2024-03-29T09:44:11;99171.84;;;18.79;59.91
77161;BME280;66135;0.000;0.000;2024-03-29T09:46:36;99170.16;;;18.78;59.76
77161;BME280;66135;0.000;0.000;2024-03-29T09:49:05;99177.28;;;18.79;59.68
77161;BME280;66135;0.000;0.000;2024-03-29T09:51:32;99176.22;;;18.80;59.73
77161;BME280;66135;0.000;0.000;2024-03-29T09:53:58;99180.78;;;18.79;59.74
77161;BME280;66135;0.000;0.000;2024-03-29T09:56:25;99187.91;;;18.80;59.69
77161;BME280;66135;0.000;0.000;2024-03-29T09:58:51;99180.59;;;18.81;60.08
77161;BME280;66135;0.000;0.000;2024-03-29T10:01:18;99192.47;;;18.80;60.02
77161;BME280;66135;0.000;0.000;2024-03-29T10:03:47;99194.97;;;18.81;59.92
77161;BME280;66135;0.000;0.000;2024-03-29T10:06:14;99184.34;;;18.80;59.76
77161;BME280;66135;0.000;0.000;2024-03-29T10:08:40;99175.38;;;18.79;59.60
77161;BME280;66135;0.000;0.000;2024-03-29T10:11:07;99169.75;;;18.81;59.56
77161;BME280;66135;0.000;0.000;2024-03-29T10:13:32;99179.53;;;18.82;59.44
77161;BME280;66135;0.000;0.000;2024-03-29T10:16:00;99160.53;;;18.82;59.40
77161;BME280;66135;0.000;0.000;2024-03-29T10:18:28;99155.97;;;18.82;59.61
77161;BME280;66135;0.000;0.000;2024-03-29T10:21:06;99163.25;;;18.82;59.82
77161;BME280;66135;0.000;0.000;2024-03-29T10:23:35;99159.47;;;18.83;59.55
77161;BME280;66135;0.000;0.000;2024-03-29T10:26:01;99164.09;;;18.82;59.92
77161;BME280;66135;0.000;0.000;2024-03-29T10:28:34;99159.28;;;18.84;59.47
77161;BME280;66135;0.000;0.000;2024-03-29T10:31:03;99167.44;;;18.84;59.91
77161;BME280;66135;0.000;0.000;2024-03-29T10:33:30;99181.00;;;18.84;59.79
77161;BME280;66135;0.000;0.000;2024-03-29T10:35:58;99179.31;;;18.83;60.15
77161;BME280;66135;0.000;0.000;2024-03-29T10:38:25;99164.72;;;18.84;59.94
77161;BME280;66135;0.000;0.000;2024-03-29T10:40:53;99168.25;;;18.85;59.96
77161;BME280;66135;0.000;0.000;2024-03-29T10:43:19;99176.16;;;18.86;59.90
77161;BME280;66135;0.000;0.000;2024-03-29T10:45:48;99181.56;;;18.86;60.06
77161;BME280;66135;0.000;0.000;2024-03-29T10:48:16;99179.09;;;18.85;60.06
77161;BME280;66135;0.000;0.000;2024-03-29T10:50:42;99191.84;;;18.84;60.55
77161;BME280;66135;0.000;0.000;2024-03-29T10:53:08;99196.44;;;18.84;60.49
77161;BME280;66135;0.000;0.000;2024-03-29T10:55:36;99214.59;;;18.83;60.18
77161;BME280;66135;0.000;0.000;2024-03-29T10:58:02;99233.56;;;18.83;60.25
77161;BME280;66135;0.000;0.000;2024-03-29T11:00:33;99212.94;;;18.82;60.34
77161;BME280;66135;0.000;0.000;2024-03-29T11:03:47;99226.06;;;18.85;60.61
77161;BME280;66135;0.000;0.000;2024-03-29T11:06:15;99214.34;;;18.85;60.55
77161;BME280;66135;0.000;0.000;2024-03-29T11:08:43;99219.78;;;18.85;60.96
77161;BME280;66135;0.000;0.000;2024-03-29T11:11:12;99202.69;;;18.84;60.63
77161;BME280;66135;0.000;0.000;2024-03-29T11:13:49;99181.81;;;18.85;60.53
77161;BME280;66135;0.000;0.000;2024-03-29T11:16:17;99162.19;;;18.83;60.86
77161;BME280;66135;0.000;0.000;2024-03-29T11:18:44;99170.13;;;18.84;60.89
77161;BME280;66135;0.000;0.000;2024-03-29T11:21:12;99176.38;;;18.85;60.78
77161;BME280;66135;0.000;0.000;2024-03-29T11:23:39;99183.72;;;18.84;60.86
77161;BME280;66135;0.000;0.000;2024-03-29T11:26:04;99182.66;;;18.85;61.01
77161;BME280;66135;0.000;0.000;2024-03-29T11:28:33;99197.06;;;18.86;60.84
77161;BME280;66135;0.000;0.000;2024-03-29T11:31:05;99196.44;;;18.84;60.82
77161;BME280;66135;0.000;0.000;2024-03-29T11:36:10;99206.22;;;18.85;61.10
77161;BME280;66135;0.000;0.000;2024-03-29T11:38:37;99206.44;;;18.83;61.13
77161;BME280;66135;0.000;0.000;2024-03-29T11:41:03;99210.63;;;18.86;61.17
77161;BME280;66135;0.000;0.000;2024-03-29T11:43:30;99200.78;;;18.85;61.58
77161;BME280;66135;0.000;0.000;2024-03-29T11:45:58;99201.63;;;18.85;61.11
77161;BME280;66135;0.000;0.000;2024-03-29T11:48:25;99204.13;;;18.87;60.92
77161;BME280;66135;0.000;0.000;2024-03-29T11:50:51;99220.41;;;18.87;61.20
77161;BME280;66135;0.000;0.000;2024-03-29T11:53:17;99225.00;;;18.86;61.42
77161;BME280;66135;0.000;0.000;2024-03-29T11:55:43;99219.38;;;18.88;61.21
77161;BME280;66135;0.000;0.000;2024-03-29T11:58:08;99225.59;;;18.88;61.58
77161;BME280;66135;0.000;0.000;2024-03-29T12:00:34;99223.97;;;18.87;60.96
77161;BME280;66135;0.000;0.000;2024-03-29T12:02:59;99220.19;;;18.88;61.58
77161;BME280;66135;0.000;0.000;2024-03-29T12:05:24;99223.75;;;18.89;61.12
77161;BME280;66135;0.000;0.000;2024-03-29T12:07:50;99235.44;;;18.89;60.83
77161;BME280;66135;0.000;0.000;2024-03-29T12:10:15;99235.66;;;18.88;61.29
77161;BME280;66135;0.000;0.000;2024-03-29T12:12:42;99221.25;;;18.87;61.45
77161;BME280;66135;0.000;0.000;2024-03-29T12:15:08;99230.22;;;18.88;61.15
77161;BME280;66135;0.000;0.000;2024-03-29T12:17:34;99231.03;;;18.88;61.13
77161;BME280;66135;0.000;0.000;2024-03-29T12:19:59;99223.97;;;18.87;61.11
77161;BME280;66135;0.000;0.000;2024-03-29T12:22:30;99235.66;;;18.88;61.32
77161;BME280;66135;0.000;0.000;2024-03-29T12:24:55;99236.69;;;18.87;61.52
77161;BME280;66135;0.000;0.000;2024-03-29T12:27:21;99236.69;;;18.87;61.40
77161;BME280;66135;0.000;0.000;2024-03-29T12:29:50;99229.59;;;18.86;61.41
77161;BME280;66135;0.000;0.000;2024-03-29T12:32:18;99236.91;;;18.85;61.36
77161;BME280;66135;0.000;0.000;2024-03-29T12:34:44;99229.59;;;18.86;61.36
77161;BME280;66135;0.000;0.000;2024-03-29T12:37:10;99237.75;;;18.86;61.58
77161;BME280;66135;0.000;0.000;2024-03-29T12:39:36;99234.19;;;18.85;61.45
77161;BME280;66135;0.000;0.000;2024-03-29T12:42:04;99227.69;;;18.86;61.52
77161;BME280;66135;0.000;0.000;2024-03-29T12:44:30;99230.41;;;18.86;61.59
77161;BME280;66135;0.000;0.000;2024-03-29T12:46:58;99229.59;;;18.86;61.35
77161;BME280;66135;0.000;0.000;2024-03-29T12:49:26;99220.41;;;18.87;61.59
77161;BME280;66135;0.000;0.000;2024-03-29T12:51:52;99232.94;;;18.88;61.77
77161;BME280;66135;0.000;0.000;2024-03-29T12:54:17;99226.06;;;18.85;61.88
77161;BME280;66135;0.000;0.000;2024-03-29T12:56:44;99221.69;;;18.84;61.75
77161;BME280;66135;0.000;0.000;2024-03-29T12:59:09;99216.03;;;18.86;62.04
77161;BME280;66135;0.000;0.000;2024-03-29T13:01:35;99226.06;;;18.85;62.31
77161;BME280;66135;0.000;0.000;2024-03-29T13:04:00;99220.63;;;18.85;61.78
77161;BME280;66135;0.000;0.000;2024-03-29T13:06:26;99224.19;;;18.86;61.63
77161;BME280;66135;0.000;0.000;2024-03-29T13:08:51;99226.06;;;18.85;62.18